Time;durP1;ratioP1;P1;durP2;ratioP2;P2;SDS_P1;SDS_P2;PMS_P1;PMS_P2;Temp;Humidity;BMP_temperature;BMP_pressure;BME280_temperature;BME280_humidity;BME280_pressure;Samples;Min_cycle;Max_cycle;Signal;HPM_P1;HPM_P2
2022/06/06 00:01:38;;;;;;;9.93;5.40;;;22.50;90.30;;;22.92;58.54;94842.59;5070298;28;20465;-56
2022/06/06 00:04:05;;;;;;;5.57;4.90;;;22.40;90.30;;;22.86;58.28;94855.00;5076824;28;20451;-54
2022/06/06 00:06:33;;;;;;;5.47;5.03;;;22.40;90.30;;;22.84;58.67;94850.91;5076821;28;20553;-54
2022/06/06 00:09:00;;;;;;;13.93;5.53;;;22.30;90.50;;;22.83;58.71;94842.00;5069150;28;20447;-56
2022/06/06 00:11:32;;;;;;;4.53;4.20;;;22.30;90.70;;;22.81;58.59;94838.72;5073708;28;20521;-55
2022/06/06 00:13:59;;;;;;;5.97;5.40;;;22.30;90.90;;;22.82;58.90;94844.91;5069585;28;20501;-53
2022/06/06 00:16:26;;;;;;;14.33;5.10;;;22.30;90.90;;;22.81;58.49;94845.97;5071993;28;20474;-52
2022/06/06 00:18:54;;;;;;;11.80;5.30;;;22.30;91.00;;;22.80;58.81;94837.09;5067800;28;20836;-53
2022/06/06 00:21:21;;;;;;;7.53;5.30;;;22.30;91.10;;;22.78;58.89;94839.16;5074373;28;20498;-55
2022/06/06 00:23:48;;;;;;;9.00;5.80;;;22.30;90.90;;;22.76;59.33;94827.00;5071297;28;20464;-54
2022/06/06 00:26:16;;;;;;;8.50;5.20;;;22.20;91.00;;;22.74;58.62;94824.53;5068736;28;20485;-53
2022/06/06 00:28:45;;;;;;;7.60;5.50;;;22.20;91.00;;;22.71;58.82;94816.94;5068299;28;20515;-53
2022/06/06 00:36:43;;;;;;;8.90;5.10;;;22.20;91.40;;;22.69;59.84;94786.84;5068158;28;20461;-55
2022/06/06 00:39:13;;;;;;;5.30;4.80;;;22.20;91.50;;;22.68;59.35;94783.34;5081976;28;20997;-54
2022/06/06 00:41:40;;;;;;;4.87;4.50;;;22.20;91.60;;;22.70;59.60;94775.91;5082146;28;20439;-53
2022/06/06 00:44:11;;;;;;;8.53;5.00;;;22.20;91.70;;;22.72;59.17;94771.13;5080254;28;20462;-54
2022/06/06 00:46:40;;;;;;;6.20;5.00;;;22.20;91.70;;;22.74;59.16;94769.06;5076857;28;20446;-54
2022/06/06 00:49:09;;;;;;;6.90;4.47;;;22.20;91.70;;;22.77;59.19;94769.66;5080554;28;20464;-57
2022/06/06 00:51:37;;;;;;;10.00;4.90;;;22.30;91.70;;;22.78;59.82;94760.59;5079637;28;20989;-58
2022/06/06 00:54:06;;;;;;;7.83;5.10;;;22.30;91.70;;;22.79;59.33;94756.84;5077161;28;20498;-54
2022/06/06 00:56:35;;;;;;;10.80;5.60;;;22.30;91.60;;;22.79;58.96;94763.06;5078276;28;21048;-54
2022/06/06 00:59:06;;;;;;;7.30;5.10;;;22.30;91.60;;;22.80;59.09;94759.31;5074458;28;20470;-54
2022/06/06 01:01:34;;;;;;;8.57;5.40;;;22.30;91.60;;;22.80;59.36;94753.94;5075650;28;20823;-54
2022/06/06 01:04:02;;;;;;;7.47;5.53;;;22.30;91.60;;;22.81;59.09;94744.88;5072536;28;20458;-55
2022/06/06 01:06:32;;;;;;;8.17;5.50;;;22.30;91.60;;;22.80;59.20;94739.72;5075445;28;20455;-53
2022/06/06 01:08:59;;;;;;;6.47;5.47;;;22.30;91.60;;;22.80;58.98;94731.69;5073704;28;20447;-56
2022/06/06 01:11:27;;;;;;;18.37;6.57;;;22.30;91.80;;;22.77;59.71;94711.47;5074882;28;20478;-54
2022/06/06 01:13:54;;;;;;;9.50;5.73;;;22.30;91.80;;;22.73;59.78;94704.94;5075156;28;20873;-55
2022/06/06 01:16:39;;;;;;;8.53;6.57;;;22.20;92.10;;;22.70;61.27;94722.28;5072172;28;20490;-55
2022/06/06 01:19:42;;;;;;;12.33;5.90;;;22.20;92.60;;;22.67;61.45;94713.84;5070697;28;20449;-53
2022/06/06 01:22:47;;;;;;;8.87;5.57;;;22.20;93.10;;;22.62;60.80;94694.91;5070072;28;20444;-54
2022/06/06 01:25:38;;;;;;;6.40;5.77;;;22.10;93.00;;;22.52;60.86;94714.97;5066926;28;20481;-57
2022/06/06 01:28:16;;;;;;;9.50;5.50;;;22.10;92.70;;;22.45;61.17;94735.66;5064157;28;20459;-56
2022/06/06 01:30:46;;;;;;;10.90;5.87;;;22.00;93.10;;;22.39;61.61;94749.94;5065178;28;20927;-56
2022/06/06 01:33:14;;;;;;;7.10;5.50;;;21.90;93.60;;;22.36;62.90;94841.47;5065038;28;20570;-56
2022/06/06 01:35:43;;;;;;;8.17;6.03;;;21.90;94.50;;;22.33;62.52;94888.28;5066102;28;20685;-54
2022/06/06 01:38:11;;;;;;;7.07;4.60;;;21.90;94.80;;;22.29;62.47;94891.56;5064168;28;20459;-56
2022/06/06 01:40:41;;;;;;;18.60;6.53;;;21.80;94.40;;;22.24;63.04;94894.88;5075687;28;20473;-53
2022/06/06 01:43:10;;;;;;;24.57;7.43;;;21.80;94.70;;;22.21;63.63;94884.59;5075550;28;20446;-55
2022/06/06 01:45:42;;;;;;;14.97;7.30;;;21.70;95.60;;;22.17;65.24;94848.56;5084477;28;20470;-52
2022/06/06 01:48:13;;;;;;;20.03;7.60;;;21.70;96.70;;;22.12;65.56;94819.72;5080949;28;20462;-53
2022/06/06 01:50:41;;;;;;;21.17;6.67;;;21.70;97.30;;;22.04;65.76;94827.97;5076213;28;20501;-54
2022/06/06 01:53:09;;;;;;;22.37;6.70;;;21.60;97.00;;;21.95;67.18;94816.69;5083114;28;20500;-53
2022/06/06 01:55:39;;;;;;;11.47;5.33;;;21.50;98.40;;;21.89;66.72;94841.66;5080208;28;20474;-54
2022/06/06 01:58:08;;;;;;;18.27;6.30;;;21.40;98.10;;;21.85;68.02;94851.94;5080433;28;20463;-55
2022/06/06 02:00:38;;;;;;;10.20;6.40;;;21.40;98.90;;;21.79;68.50;94843.94;5079505;28;20972;-53
2022/06/06 02:03:05;;;;;;;13.20;5.47;;;21.30;99.10;;;21.75;68.53;94843.53;5077881;28;20457;-54
2022/06/06 02:05:33;;;;;;;13.97;5.07;;;21.30;99.40;;;21.75;68.33;94832.00;5076326;28;20474;-54
2022/06/06 02:08:00;;;;;;;13.83;5.33;;;21.30;99.40;;;21.74;69.28;94849.09;5080587;28;20493;-54
2022/06/06 02:10:27;;;;;;;14.03;4.83;;;21.30;99.90;;;21.73;69.04;94869.69;5074581;28;20477;-53
2022/06/06 02:12:55;;;;;;;9.47;5.30;;;21.30;99.90;;;21.74;69.13;94875.88;5075948;28;20498;-54
2022/06/06 02:15:23;;;;;;;12.90;4.63;;;21.30;99.90;;;21.73;69.29;94883.06;5075807;28;20497;-55
2022/06/06 02:17:53;;;;;;;6.80;4.03;;;21.20;99.90;;;21.72;69.45;94900.19;5071980;28;20511;-53
2022/06/06 02:20:22;;;;;;;11.40;4.30;;;21.30;99.90;;;21.71;69.38;94900.38;5074883;28;20916;-54
2022/06/06 02:22:49;;;;;;;11.77;4.57;;;21.20;99.90;;;21.70;69.68;94920.97;5070992;28;20459;-54
2022/06/06 02:25:16;;;;;;;7.03;3.87;;;21.20;99.90;;;21.69;69.53;94951.47;5073934;28;20462;-54
2022/06/06 02:27:44;;;;;;;12.47;4.40;;;21.20;99.90;;;21.69;69.90;94956.81;5071655;28;20465;-56
2022/06/06 02:30:15;;;;;;;11.60;4.70;;;21.20;99.90;;;21.67;70.20;94958.84;5072121;28;20471;-57
2022/06/06 02:32:42;;;;;;;22.60;5.57;;;21.20;99.90;;;21.64;70.88;94956.59;5069320;28;20454;-54
2022/06/06 02:35:16;;;;;;;11.80;5.57;;;21.20;99.90;;;21.59;70.35;94930.44;5070710;28;20572;-55
2022/06/06 02:37:44;;;;;;;13.60;5.77;;;21.10;99.90;;;21.56;70.69;94898.75;5070502;28;20482;-56
2022/06/06 02:40:12;;;;;;;11.13;5.20;;;21.10;99.90;;;21.54;70.32;94884.75;5069691;28;20614;-54
2022/06/06 02:42:40;;;;;;;9.67;5.80;;;21.10;99.90;;;21.46;70.10;94871.56;5067767;28;20474;-55
2022/06/06 02:45:09;;;;;;;9.80;5.00;;;21.00;99.90;;;21.39;70.74;94866.19;5086003;28;20906;-55
2022/06/06 02:47:37;;;;;;;13.57;5.83;;;21.00;99.90;;;21.33;70.71;94826.06;5078808;28;20567;-53
2022/06/06 02:50:05;;;;;;;16.07;5.50;;;20.90;99.90;;;21.26;71.28;94808.19;5084751;28;20470;-54
2022/06/06 02:52:34;;;;;;;9.87;5.03;;;20.80;99.90;;;21.21;71.23;94793.78;5077395;28;20512;-54
2022/06/06 02:55:02;;;;;;;5.90;4.57;;;20.80;99.90;;;21.18;71.47;94802.22;5075027;28;20489;-54
2022/06/06 02:57:29;;;;;;;6.37;4.33;;;20.80;99.90;;;21.11;71.68;94784.31;5080853;28;21066;-53
2022/06/06 02:59:57;;;;;;;16.87;4.80;;;20.70;99.90;;;21.06;71.31;94794.81;5082279;28;20479;-53
2022/06/06 03:02:24;;;;;;;19.63;5.77;;;20.60;99.90;;;21.01;72.00;94797.31;5075328;28;20907;-55
2022/06/06 03:04:52;;;;;;;11.47;4.77;;;20.60;99.90;;;21.05;72.55;94817.28;5079518;28;20466;-55
2022/06/06 03:07:23;;;;;;;7.10;4.80;;;20.60;99.90;;;21.09;72.70;94828.38;5076219;28;20494;-53
2022/06/06 03:10:01;;;;;;;7.10;4.53;;;20.60;99.90;;;21.13;73.10;94824.22;5072901;28;20475;-55
2022/06/06 03:12:39;;;;;;;19.73;5.17;;;20.60;99.90;;;21.16;73.40;94831.84;5073819;28;20446;-54
2022/06/06 03:15:23;;;;;;;11.80;5.50;;;20.70;99.90;;;21.17;73.08;94846.06;5068037;28;20946;-57
2022/06/06 03:20:54;;;;;;;17.37;6.27;;;20.70;99.90;;;21.21;73.03;94856.13;5073841;28;20597;-53
2022/06/06 03:23:51;;;;;;;9.67;4.97;;;20.80;99.90;;;21.23;73.35;94855.94;5068494;28;20538;-53
2022/06/06 03:26:30;;;;;;;13.20;5.70;;;20.80;99.90;;;21.25;73.03;94877.94;5051489;28;20470;-54
2022/06/06 03:29:11;;;;;;;10.33;5.70;;;20.80;99.90;;;21.27;73.91;94890.09;5071106;28;20459;-53
2022/06/06 03:31:47;;;;;;;13.03;6.27;;;20.80;99.90;;;21.21;74.95;94880.22;5073232;28;20457;-55
2022/06/06 03:34:20;;;;;;;17.33;6.00;;;20.80;99.90;;;21.19;73.34;94890.28;5067830;28;20478;-54
2022/06/06 03:36:52;;;;;;;8.13;5.17;;;20.80;99.90;;;21.16;73.46;94882.66;5072486;28;20501;-54
2022/06/06 03:39:25;;;;;;;11.33;6.30;;;20.70;99.90;;;21.16;72.83;94880.00;5071386;28;20451;-58
2022/06/06 03:42:02;;;;;;;12.57;6.83;;;20.70;99.90;;;21.10;73.30;94868.28;5069760;28;20461;-54
2022/06/06 03:44:39;;;;;;;19.27;6.33;;;20.70;99.90;;;21.06;73.83;94868.91;5067891;28;20934;-54
2022/06/06 03:47:15;;;;;;;13.50;6.47;;;20.60;99.90;;;21.00;73.11;94883.91;5085407;28;20474;-53
2022/06/06 03:49:48;;;;;;;11.47;6.00;;;20.50;99.90;;;20.94;72.77;94877.53;5076511;28;20470;-53
2022/06/06 03:52:20;;;;;;;10.10;6.10;;;20.50;99.90;;;20.89;73.26;94882.66;5073636;28;20453;-53
2022/06/06 03:54:54;;;;;;;11.70;6.13;;;20.50;99.90;;;20.84;73.14;94882.44;5081244;28;20506;-55
2022/06/06 03:57:25;;;;;;;14.00;7.10;;;20.40;99.90;;;20.83;73.51;94893.34;5080465;28;20468;-54
2022/06/06 03:59:56;;;;;;;18.10;7.00;;;20.40;99.90;;;20.80;74.03;94889.22;5078647;28;20466;-55
2022/06/06 04:02:25;;;;;;;7.67;6.83;;;20.40;99.90;;;20.75;74.58;94876.47;5079486;28;20449;-55
2022/06/06 04:04:53;;;;;;;11.47;7.57;;;20.40;99.90;;;20.70;74.02;94889.63;5077674;28;20466;-55
2022/06/06 04:07:20;;;;;;;18.83;8.60;;;20.30;99.90;;;20.65;73.98;94891.25;5079116;28;20450;-52
2022/06/06 04:09:47;;;;;;;10.60;7.97;;;20.20;99.90;;;20.57;74.56;94886.88;5078018;28;20856;-53
2022/06/06 04:12:37;;;;;;;15.43;6.90;;;20.20;99.90;;;20.47;74.31;94889.94;5078362;28;20452;-54
2022/06/06 04:15:16;;;;;;;13.47;7.90;;;20.10;99.90;;;20.40;74.75;94889.91;5074119;28;20501;-53
2022/06/06 04:17:58;;;;;;;20.30;7.17;;;20.00;99.90;;;20.39;75.87;94882.91;5068591;28;20919;-53
2022/06/06 04:20:30;;;;;;;13.40;8.73;;;20.00;99.90;;;20.37;75.54;94879.63;5070581;28;21018;-53
2022/06/06 04:23:15;;;;;;;16.20;7.57;;;20.00;99.90;;;20.40;75.97;94879.22;5069872;28;20524;-56
2022/06/06 04:25:56;;;;;;;15.00;6.77;;;19.90;99.90;;;20.44;75.79;94886.84;5066050;28;20990;-54
2022/06/06 04:28:28;;;;;;;13.30;7.13;;;20.00;99.90;;;20.45;76.28;94885.81;5068756;28;20447;-54
2022/06/06 04:31:02;;;;;;;13.27;8.10;;;20.00;99.90;;;20.48;76.21;94886.25;5069015;28;20475;-54
2022/06/06 04:33:37;;;;;;;16.63;7.77;;;20.10;99.90;;;20.55;76.47;94883.59;5069499;28;20471;-55
2022/06/06 04:36:07;;;;;;;14.43;8.57;;;20.10;99.90;;;20.62;76.53;94876.41;5069663;28;20471;-53
2022/06/06 04:38:42;;;;;;;21.53;8.20;;;20.10;99.90;;;20.72;76.40;94882.22;5069176;28;20496;-55
2022/06/06 04:41:14;;;;;;;12.80;7.80;;;20.20;99.90;;;20.83;76.32;94871.94;5068357;28;20466;-55
2022/06/06 04:43:47;;;;;;;17.20;8.20;;;20.30;99.90;;;20.97;76.33;94876.28;5066008;28;20454;-54
2022/06/06 04:46:18;;;;;;;19.30;7.30;;;20.50;99.90;;;21.12;75.95;94881.44;5066232;28;20838;-55
2022/06/06 04:48:45;;;;;;;22.13;8.40;;;20.60;99.90;;;21.28;75.97;94888.22;5068944;28;20470;-56
2022/06/06 04:51:14;;;;;;;11.37;7.10;;;20.80;99.90;;;21.41;75.69;94890.91;5080995;28;20470;-54
2022/06/06 04:53:42;;;;;;;13.13;7.57;;;20.90;99.90;;;21.53;75.29;94893.81;5075112;28;20450;-56
2022/06/06 04:56:10;;;;;;;17.47;7.77;;;21.00;99.90;;;21.62;74.93;94891.75;5077151;28;20489;-53
2022/06/06 04:58:38;;;;;;;14.70;7.07;;;21.10;99.90;;;21.69;74.72;94891.72;5079006;28;20451;-54
2022/06/06 05:01:07;;;;;;;10.77;7.90;;;21.20;99.90;;;21.73;74.66;94893.78;5074039;28;20474;-53
2022/06/06 05:03:35;;;;;;;15.57;7.80;;;21.20;99.90;;;21.77;74.39;94892.34;5078247;28;20541;-55
2022/06/06 05:06:45;;;;;;;12.50;8.30;;;21.30;99.90;;;21.82;74.56;94892.53;5076213;28;20843;-55
2022/06/06 05:09:33;;;;;;;9.80;7.03;;;21.30;99.90;;;21.89;74.26;94903.25;5077095;28;20477;-56
2022/06/06 05:12:11;;;;;;;16.47;8.60;;;21.40;99.90;;;21.94;73.85;94895.38;5074603;28;20942;-54
2022/06/06 05:14:55;;;;;;;18.27;8.00;;;21.40;99.90;;;22.00;74.07;94901.78;5073184;28;20497;-53
2022/06/06 05:17:52;;;;;;;15.87;7.70;;;21.50;99.90;;;22.05;73.81;94909.19;5073314;28;21142;-54
2022/06/06 05:20:41;;;;;;;14.03;7.77;;;21.60;99.90;;;22.10;73.85;94915.53;5069861;28;20901;-54
2022/06/06 05:23:21;;;;;;;11.43;7.20;;;21.60;99.90;;;22.15;74.12;94910.38;5074415;28;20452;-54
2022/06/06 05:26:03;;;;;;;8.63;6.20;;;21.70;99.90;;;22.24;72.99;94910.97;5071096;28;20966;-56
2022/06/06 05:29:16;;;;;;;10.97;6.93;;;21.80;99.90;;;22.27;72.50;94897.13;5071158;28;20459;-54
2022/06/06 05:32:00;;;;;;;17.30;6.17;;;21.80;99.90;;;22.35;72.03;94896.09;5070717;28;20813;-53
2022/06/06 05:34:37;;;;;;;17.37;6.37;;;21.80;99.90;;;22.42;72.12;94898.75;5068537;28;20501;-55
2022/06/06 05:37:21;;;;;;;18.07;6.87;;;21.90;99.90;;;22.51;72.42;94895.63;5057948;28;21445;-54
2022/06/06 05:40:22;;;;;;;18.90;7.83;;;22.00;99.90;;;22.64;72.53;94901.97;5068259;28;20470;-54
2022/06/06 05:43:21;;;;;;;16.30;8.40;;;22.10;99.90;;;22.78;72.38;94908.06;5062748;28;20455;-57
2022/06/06 05:45:58;;;;;;;15.20;8.63;;;22.20;99.90;;;22.87;71.85;94902.22;5063742;28;21018;-56
2022/06/06 05:48:37;;;;;;;18.10;8.43;;;22.30;99.90;;;22.94;70.98;94910.22;5062271;28;20447;-54
2022/06/06 05:51:17;;;;;;;15.07;7.70;;;22.40;99.90;;;23.02;70.83;94917.19;5071438;28;20855;-54
2022/06/06 05:54:28;;;;;;;15.47;7.73;;;22.50;99.90;;;23.13;71.06;94902.31;5081264;28;20442;-56
2022/06/06 05:57:35;;;;;;;12.17;5.73;;;22.60;99.90;;;23.31;70.45;94896.19;5079207;28;20454;-57
2022/06/06 06:00:06;;;;;;;18.07;7.27;;;22.80;99.90;;;;;;5078290;28;20542;-54
2022/06/06 06:02:55;;;;;;;15.17;7.70;;;22.90;99.90;;;23.65;69.05;94904.78;5078229;28;20456;-58
2022/06/06 06:05:29;;;;;;;22.93;7.17;;;23.10;99.90;;;23.81;69.30;94914.94;5073658;28;20490;-57
2022/06/06 06:08:10;;;;;;;16.73;7.00;;;23.20;99.90;;;23.92;69.16;94916.97;5079577;28;20441;-56
2022/06/06 06:10:45;;;;;;;13.60;5.50;;;23.40;99.90;;;24.02;68.36;94919.13;5076518;28;20560;-53
2022/06/06 06:13:32;;;;;;;12.20;5.10;;;23.50;99.90;;;24.13;67.86;94914.88;5070475;28;20445;-53
2022/06/06 06:16:01;;;;;;;11.00;5.40;;;23.60;99.90;;;24.26;67.38;94917.44;5076157;28;20504;-55
2022/06/06 06:18:33;;;;;;;18.20;6.27;;;23.70;99.90;;;24.38;67.62;94908.59;5074924;28;20838;-52
2022/06/06 06:21:03;;;;;;;12.37;5.30;;;23.80;99.90;;;24.49;67.08;94900.59;5075457;28;20471;-54
2022/06/06 06:23:35;;;;;;;9.87;5.50;;;23.90;99.90;;;24.61;66.87;94905.25;5073026;28;20438;-56
2022/06/06 06:26:05;;;;;;;13.77;6.00;;;24.10;99.90;;;24.74;66.32;94912.31;5072781;28;20481;-54
2022/06/06 06:28:34;;;;;;;14.43;5.43;;;24.20;99.90;;;24.87;66.40;94915.66;5073696;28;20445;-56
2022/06/06 06:31:17;;;;;;;9.77;5.30;;;24.30;99.90;;;25.02;65.59;94923.31;5069767;28;20636;-54
2022/06/06 06:33:53;;;;;;;12.27;5.43;;;24.40;99.70;;;25.16;65.94;94917.72;5069487;28;20560;-56
2022/06/06 06:36:33;;;;;;;12.27;6.27;;;24.50;99.70;;;25.28;65.32;94912.38;5072517;28;20470;-55
2022/06/06 06:39:14;;;;;;;7.90;4.63;;;24.70;99.40;;;25.39;64.37;94904.38;5072370;28;20822;-54
2022/06/06 06:41:48;;;;;;;16.90;5.67;;;24.80;98.90;;;25.56;64.42;94900.97;5070916;28;20442;-56
2022/06/06 06:44:18;;;;;;;18.70;6.00;;;25.00;99.00;;;25.75;64.25;94897.13;5067900;28;20555;-57
2022/06/06 06:46:55;;;;;;;10.70;6.00;;;25.10;98.60;;;25.96;63.68;94881.41;5070073;28;21013;-55
2022/06/06 06:49:36;;;;;;;11.60;5.83;;;25.30;98.50;;;26.18;63.06;94875.44;5069364;28;20442;-54
2022/06/06 06:52:12;;;;;;;15.03;4.70;;;25.50;98.00;;;26.36;62.41;94866.38;5066645;28;20540;-54
2022/06/06 06:54:52;;;;;;;20.53;6.10;;;25.70;97.40;;;26.56;61.92;94864.06;5077601;28;20484;-54
2022/06/06 06:57:43;;;;;;;13.03;5.60;;;25.90;97.20;;;26.80;60.30;94870.25;5082091;28;20449;-55
2022/06/06 07:00:12;;;;;;;12.80;5.73;;;26.10;96.60;;;26.99;60.57;94867.34;5082360;28;20474;-54
2022/06/06 07:08:46;;;;;;;13.03;5.90;;;26.70;95.50;;;27.60;58.70;94855.94;5079591;28;20507;-56
2022/06/06 07:11:40;;;;;;;18.23;5.57;;;26.90;94.90;;;27.77;58.79;94848.59;5080263;28;20477;-55
2022/06/06 07:14:14;;;;;;;8.80;4.43;;;27.10;94.60;;;27.90;58.45;94850.97;5079164;28;20851;-56
2022/06/06 07:16:41;;;;;;;15.93;6.03;;;27.20;94.20;;;28.01;58.77;94845.72;5075275;28;20610;-54
2022/06/06 07:19:12;;;;;;;12.77;5.60;;;27.30;94.10;;;28.15;58.13;94830.78;5078376;28;20911;-55
2022/06/06 07:21:41;;;;;;;11.93;4.90;;;27.40;93.60;;;28.31;57.74;94837.19;5074517;28;20497;-55
2022/06/06 07:24:09;;;;;;;15.27;5.00;;;27.60;93.30;;;28.47;57.16;94827.34;5076604;28;20450;-55
2022/06/06 07:26:42;;;;;;;24.30;5.47;;;27.80;93.10;;;28.66;57.30;94830.59;5071271;28;20457;-55
2022/06/06 07:29:11;;;;;;;10.70;5.00;;;27.90;92.90;;;28.84;56.68;94836.72;5076454;28;20511;-57
2022/06/06 07:31:49;;;;;;;10.33;5.00;;;28.10;92.50;;;29.00;55.26;94843.09;5074596;28;20454;-53
2022/06/06 07:34:41;;;;;;;7.50;4.27;;;28.30;91.80;;;29.18;54.86;94858.97;5071559;28;20518;-55
2022/06/06 07:37:15;;;;;;;16.73;6.10;;;28.40;91.50;;;29.30;54.46;94848.00;5068666;28;20788;-53
2022/06/06 07:39:52;;;;;;;15.07;5.60;;;28.60;90.90;;;29.40;55.07;94849.97;5072471;28;20466;-54
2022/06/06 07:42:42;;;;;;;10.67;5.73;;;28.70;90.50;;;29.55;54.01;94844.66;5066264;28;20446;-56
2022/06/06 07:45:20;;;;;;;13.57;4.57;;;28.80;90.40;;;29.75;53.75;94840.47;5065398;28;20482;-55
2022/06/06 07:48:09;;;;;;;12.60;5.20;;;29.00;90.10;;;29.96;53.92;94844.13;5066929;28;20212;-57
2022/06/06 07:50:42;;;;;;;13.77;4.30;;;29.20;89.10;;;30.15;53.16;94849.97;5068210;28;20224;-57
2022/06/06 07:53:14;;;;;;;12.47;4.80;;;29.40;88.50;;;30.31;53.21;94851.63;5066823;28;20205;-56
2022/06/06 07:55:45;;;;;;;14.00;6.37;;;29.60;87.70;;;30.43;51.65;94862.31;5063022;28;20263;-53
2022/06/06 07:58:20;;;;;;;14.67;4.93;;;29.70;85.70;;;30.44;51.15;94857.69;5081337;28;20686;-56
2022/06/06 08:00:58;;;;;;;18.03;5.70;;;29.80;83.70;;;30.41;51.87;94850.88;5081207;28;20256;-55
2022/06/06 08:03:29;;;;;;;27.20;4.93;;;29.80;83.60;;;30.42;51.47;94849.00;5078024;28;20202;-58
2022/06/06 08:06:09;;;;;;;11.67;3.57;;;29.80;83.00;;;30.47;50.47;94851.72;5081538;28;20604;-55
2022/06/06 08:09:19;;;;;;;11.63;5.23;;;29.80;81.30;;;30.60;49.12;94856.69;5068485;28;20206;-53
2022/06/06 08:12:08;;;;;;;10.07;4.37;;;29.90;79.80;;;30.64;49.87;94865.91;5080112;28;20572;-56
2022/06/06 08:14:48;;;;;;;11.80;4.80;;;30.00;79.70;;;30.61;50.36;94857.50;5077797;28;20223;-54
2022/06/06 08:17:24;;;;;;;17.27;4.63;;;30.00;79.30;;;30.48;49.47;94864.25;5074198;28;20192;-53
2022/06/06 08:20:10;;;;;;;15.13;5.33;;;29.90;78.10;;;30.36;49.74;94865.22;5073582;28;20224;-58
2022/06/06 08:22:42;;;;;;;20.90;4.40;;;29.80;78.20;;;30.31;50.12;94858.97;5075707;28;20274;-55
2022/06/06 08:25:12;;;;;;;16.50;5.13;;;29.70;78.50;;;30.26;49.49;94862.47;5073026;28;20223;-55
2022/06/06 08:27:41;;;;;;;10.73;4.10;;;29.70;77.30;;;30.29;49.02;94858.44;5072541;28;20670;-54
2022/06/06 08:30:12;;;;;;;10.97;4.60;;;29.70;76.70;;;30.36;49.83;94862.50;5071504;28;20224;-56
2022/06/06 08:32:39;;;;;;;13.67;4.43;;;29.70;77.50;;;30.52;49.57;94859.88;5073810;28;20206;-53
2022/06/06 08:35:07;;;;;;;14.50;4.30;;;29.80;76.90;;;30.64;48.49;94865.91;5073342;28;20235;-54
2022/06/06 08:38:04;;;;;;;13.20;3.53;;;29.90;76.70;;;30.76;47.98;94862.97;5064981;28;20205;-56
2022/06/06 08:41:06;;;;;;;13.10;3.83;;;30.00;74.70;;;30.79;47.59;94853.47;5071989;28;20234;-55
2022/06/06 08:44:01;;;;;;;14.83;4.40;;;30.10;72.80;;;30.75;47.40;94855.88;5070501;28;20191;-54
2022/06/06 08:46:46;;;;;;;10.90;4.50;;;30.10;72.30;;;30.65;46.58;94859.41;5068801;28;20273;-57
2022/06/06 08:52:16;;;;;;;10.83;4.00;;;29.90;72.70;;;30.33;48.65;94865.75;5064047;28;20207;-55
2022/06/06 08:55:10;;;;;;;15.60;3.80;;;29.80;72.70;;;30.12;47.91;94866.75;5063031;28;20231;-54
2022/06/06 08:57:57;;;;;;;14.90;3.93;;;29.60;73.20;;;29.92;48.57;94862.84;5065783;28;20204;-54
2022/06/06 09:00:40;;;;;;;15.03;3.60;;;29.40;73.50;;;29.68;49.24;94871.34;5077186;28;20251;-54
2022/06/06 09:04:04;;;;;;;17.67;4.07;;;29.20;74.60;;;29.44;48.93;94883.63;5080444;28;20706;-56
2022/06/06 09:07:24;;;;;;;16.87;4.60;;;28.90;74.40;;;29.10;49.51;94906.28;5037980;28;20260;-55
2022/06/06 09:10:16;;;;;;;9.80;3.03;;;28.60;74.30;;;28.71;49.25;94894.78;5079250;28;20679;-54
2022/06/06 09:13:24;;;;;;;8.23;3.37;;;28.30;72.70;;;28.22;51.02;94885.47;5077654;28;20456;-55
2022/06/06 09:16:58;;;;;;;8.30;3.90;;;27.90;76.30;;;27.64;52.08;94911.13;5077491;28;20498;-57
2022/06/06 09:20:28;;;;;;;17.73;4.97;;;27.40;78.50;;;27.24;54.85;94933.66;5009299;28;20465;-57
2022/06/06 09:23:52;;;;;;;7.50;3.77;;;26.90;83.10;;;26.98;55.39;94928.59;5015619;28;20981;-55
2022/06/06 09:26:26;;;;;;;6.90;3.43;;;26.60;86.00;;;26.87;55.33;94925.94;5073052;28;20486;-55
2022/06/06 09:29:43;;;;;;;10.30;3.80;;;26.40;86.20;;;26.79;55.56;94914.47;5073252;28;20448;-55
2022/06/06 09:32:52;;;;;;;13.77;4.80;;;26.30;87.40;;;26.80;55.22;94905.31;5060232;28;20676;-57
2022/06/06 09:36:02;;;;;;;6.77;3.50;;;26.30;87.40;;;26.74;55.05;94913.53;5073044;28;20845;-56
2022/06/06 09:38:47;;;;;;;6.27;3.73;;;26.20;87.60;;;26.61;55.15;94912.72;5069780;28;20457;-56
2022/06/06 09:41:29;;;;;;;7.37;3.40;;;26.10;86.50;;;26.36;54.33;94912.22;5070011;28;20465;-56
2022/06/06 09:43:58;;;;;;;9.83;3.77;;;25.90;85.80;;;26.15;55.07;94916.34;5064675;28;20819;-56
2022/06/06 09:47:21;;;;;;;6.67;4.07;;;25.70;85.60;;;25.89;54.63;94931.94;5068904;28;20470;-56
2022/06/06 09:50:33;;;;;;;6.43;4.00;;;25.50;85.50;;;25.64;55.12;94922.19;5026156;28;20474;-55
2022/06/06 09:53:33;;;;;;;9.83;4.37;;;25.30;86.40;;;25.50;56.02;94921.59;5062403;28;20448;-55
2022/06/06 09:59:51;;;;;;;13.70;4.50;;;25.00;88.50;;;25.38;56.47;94910.78;5065688;28;20469;-55
2022/06/06 10:02:47;;;;;;;10.83;4.60;;;24.90;90.00;;;25.40;55.94;94910.56;5065318;28;20441;-56
2022/06/06 10:06:01;;;;;;;6.63;4.17;;;24.90;88.50;;;25.31;55.35;94912.75;5083578;28;20469;-55
2022/06/06 10:08:59;;;;;;;5.53;3.60;;;24.90;87.70;;;25.21;56.18;94915.19;5078370;28;20460;-57
2022/06/06 10:12:04;;;;;;;7.07;4.27;;;24.80;88.20;;;25.30;57.69;94916.53;5074203;28;20465;-57
2022/06/06 10:15:12;;;;;;;3.63;3.33;;;24.80;90.50;;;25.34;56.92;94943.78;5077553;28;20461;-54
2022/06/06 10:18:08;;;;;;;13.37;5.30;;;24.90;90.10;;;25.24;58.34;94992.78;5026661;28;20852;-58
2022/06/06 10:20:48;;;;;;;11.70;5.57;;;24.80;90.70;;;25.09;59.30;94985.13;5081326;28;20465;-57
2022/06/06 10:23:43;;;;;;;20.20;5.90;;;24.70;91.60;;;24.78;59.03;94964.63;5072553;28;20982;-56
2022/06/06 10:26:36;;;;;;;10.63;5.10;;;24.50;92.30;;;24.43;60.27;94949.06;5076851;28;20568;-57
2022/06/06 10:33:19;;;;;;;9.57;5.40;;;23.80;93.20;;;23.67;61.85;94946.50;5075355;28;20430;-57
2022/06/06 10:35:55;;;;;;;8.00;4.20;;;23.40;94.20;;;23.47;62.75;94954.72;5055223;28;21031;-54
2022/06/06 10:38:52;;;;;;;7.07;4.80;;;23.20;94.70;;;23.30;62.82;94956.28;5074091;28;20522;-54
2022/06/06 10:41:34;;;;;;;6.30;5.07;;;23.00;94.80;;;23.14;63.80;94950.38;5073418;28;20474;-54
2022/06/06 10:44:18;;;;;;;10.73;4.67;;;22.80;95.70;;;23.06;64.62;94935.34;5072911;28;20453;-54
2022/06/06 10:46:54;;;;;;;10.63;5.20;;;22.70;96.50;;;22.98;64.07;94914.13;5070168;28;20903;-54
2022/06/06 10:49:28;;;;;;;10.80;5.40;;;22.60;96.30;;;22.84;64.81;94916.06;5072748;28;20442;-54
2022/06/06 10:52:49;;;;;;;12.37;4.70;;;22.50;96.90;;;22.69;65.73;94940.47;5071961;28;20439;-56
2022/06/06 10:56:06;;;;;;;11.00;4.67;;;22.40;97.20;;;22.55;66.64;94947.75;5066798;28;20979;-54
2022/06/06 10:59:15;;;;;;;9.93;5.27;;;22.20;98.00;;;22.49;66.43;94939.75;5066598;28;20963;-56
2022/06/06 11:02:11;;;;;;;8.23;5.87;;;22.10;98.60;;;22.46;66.90;94924.09;5067541;28;20465;-56
2022/06/06 11:05:29;;;;;;;8.17;6.10;;;22.10;98.90;;;22.46;68.45;94916.06;5066873;28;20909;-56
2022/06/06 11:08:31;;;;;;;6.20;4.97;;;22.00;99.50;;;22.47;67.89;94921.22;5083545;28;20442;-55
2022/06/06 11:12:01;;;;;;;5.90;4.70;;;22.00;99.40;;;22.52;67.23;94918.69;5075695;28;20614;-54
2022/06/06 11:14:33;;;;;;;5.83;4.20;;;22.10;99.50;;;22.54;66.53;94916.66;5011968;28;20968;-56
2022/06/06 11:17:54;;;;;;;6.03;4.87;;;22.10;98.80;;;22.59;67.06;94928.56;5080068;28;20496;-53
2022/06/06 11:21:17;;;;;;;9.70;5.67;;;22.10;99.20;;;22.66;67.04;94943.59;5030323;28;20977;-55
2022/06/06 11:23:47;;;;;;;9.40;4.90;;;22.20;99.30;;;22.70;66.13;94939.47;5078232;28;21091;-58
2022/06/06 11:27:03;;;;;;;11.87;4.37;;;22.30;99.00;;;22.74;66.96;94926.44;5071944;28;20478;-53
2022/06/06 11:30:05;;;;;;;10.83;4.23;;;22.30;99.00;;;22.74;65.83;94926.44;5079063;28;20470;-54
2022/06/06 11:33:16;;;;;;;5.60;4.17;;;22.30;98.60;;;22.72;66.09;94933.88;5073403;28;20539;-56
2022/06/06 11:36:02;;;;;;;5.70;3.57;;;22.30;98.90;;;22.71;65.64;94942.94;5039235;28;21084;-56